sensor_id;sensor_type;location;lat;lon;timestamp;temperature;humidity
8002;DHT22;4046;48.774;8.732;2022-07-29T00:00:37;18.00;99.90
8002;DHT22;4046;48.774;8.732;2022-07-29T00:03:03;17.90;99.90
8002;DHT22;4046;48.774;8.732;2022-07-29T00:05:29;17.80;99.90
8002;DHT22;4046;48.774;8.732;2022-07-29T00:07:54;17.90;99.90
8002;DHT22;4046;48.774;8.732;2022-07-29T00:10:20;17.70;99.90
8002;DHT22;4046;48.774;8.732;2022-07-29T00:12:46;17.80;99.90
8002;DHT22;4046;48.774;8.732;2022-07-29T00:15:12;17.70;99.90
8002;DHT22;4046;48.774;8.732;2022-07-29T00:17:38;17.70;99.90
8002;DHT22;4046;48.774;8.732;2022-07-29T00:20:05;17.70;99.90
8002;DHT22;4046;48.774;8.732;2022-07-29T00:22:31;17.70;99.90
8002;DHT22;4046;48.774;8.732;2022-07-29T00:24:57;17.60;99.90
8002;DHT22;4046;48.774;8.732;2022-07-29T00:27:22;17.50;99.90
8002;DHT22;4046;48.774;8.732;2022-07-29T00:29:48;17.50;99.90
8002;DHT22;4046;48.774;8.732;2022-07-29T00:32:14;17.50;99.90
8002;DHT22;4046;48.774;8.732;2022-07-29T00:34:40;17.50;99.90
8002;DHT22;4046;48.774;8.732;2022-07-29T00:37:24;17.50;99.90
8002;DHT22;4046;48.774;8.732;2022-07-29T00:39:50;17.40;99.90
8002;DHT22;4046;48.774;8.732;2022-07-29T00:42:16;17.60;99.90
8002;DHT22;4046;48.774;8.732;2022-07-29T00:44:42;17.50;99.90
8002;DHT22;4046;48.774;8.732;2022-07-29T00:47:09;17.60;99.90
8002;DHT22;4046;48.774;8.732;2022-07-29T00:49:36;17.60;99.90
8002;DHT22;4046;48.774;8.732;2022-07-29T00:52:06;17.70;99.90
8002;DHT22;4046;48.774;8.732;2022-07-29T00:54:33;17.70;99.90
8002;DHT22;4046;48.774;8.732;2022-07-29T00:56:59;17.70;99.90
8002;DHT22;4046;48.774;8.732;2022-07-29T00:59:26;17.70;99.90
8002;DHT22;4046;48.774;8.732;2022-07-29T01:01:53;17.60;99.90
8002;DHT22;4046;48.774;8.732;2022-07-29T01:04:19;17.50;99.90
8002;DHT22;4046;48.774;8.732;2022-07-29T01:06:46;17.50;99.90
8002;DHT22;4046;48.774;8.732;2022-07-29T01:09:13;17.50;99.90
8002;DHT22;4046;48.774;8.732;2022-07-29T01:11:39;17.40;99.90
8002;DHT22;4046;48.774;8.732;2022-07-29T01:14:06;17.40;99.90
8002;DHT22;4046;48.774;8.732;2022-07-29T01:16:39;17.40;99.90
8002;DHT22;4046;48.774;8.732;2022-07-29T01:22:29;17.40;99.90
8002;DHT22;4046;48.774;8.732;2022-07-29T01:25:25;17.40;99.90
8002;DHT22;4046;48.774;8.732;2022-07-29T01:30:27;17.20;99.90
8002;DHT22;4046;48.774;8.732;2022-07-29T01:32:58;17.20;99.90
8002;DHT22;4046;48.774;8.732;2022-07-29T01:35:35;17.10;99.90
8002;DHT22;4046;48.774;8.732;2022-07-29T01:38:09;17.20;99.90
8002;DHT22;4046;48.774;8.732;2022-07-29T01:40:43;17.10;99.90
8002;DHT22;4046;48.774;8.732;2022-07-29T01:43:16;17.20;99.90
8002;DHT22;4046;48.774;8.732;2022-07-29T01:46:01;17.20;99.90
8002;DHT22;4046;48.774;8.732;2022-07-29T01:48:42;17.10;99.90
8002;DHT22;4046;48.774;8.732;2022-07-29T01:51:20;17.20;99.90
8002;DHT22;4046;48.774;8.732;2022-07-29T01:54:13;17.20;99.90
8002;DHT22;4046;48.774;8.732;2022-07-29T01:56:42;17.30;99.90
8002;DHT22;4046;48.774;8.732;2022-07-29T01:59:10;17.20;99.90
8002;DHT22;4046;48.774;8.732;2022-07-29T02:01:36;17.20;99.90
8002;DHT22;4046;48.774;8.732;2022-07-29T02:04:03;17.20;99.90
8002;DHT22;4046;48.774;8.732;2022-07-29T02:06:32;17.20;99.90
8002;DHT22;4046;48.774;8.732;2022-07-29T02:09:01;17.30;99.90
8002;DHT22;4046;48.774;8.732;2022-07-29T02:11:29;17.40;99.90
8002;DHT22;4046;48.774;8.732;2022-07-29T02:13:56;17.40;99.90
8002;DHT22;4046;48.774;8.732;2022-07-29T02:16:24;17.40;99.90
8002;DHT22;4046;48.774;8.732;2022-07-29T02:18:53;17.40;99.90
8002;DHT22;4046;48.774;8.732;2022-07-29T02:21:24;17.50;99.90
8002;DHT22;4046;48.774;8.732;2022-07-29T02:23:51;17.50;99.90
8002;DHT22;4046;48.774;8.732;2022-07-29T02:26:20;17.60;99.90
8002;DHT22;4046;48.774;8.732;2022-07-29T02:28:48;17.60;99.90
8002;DHT22;4046;48.774;8.732;2022-07-29T02:31:15;17.70;99.90
8002;DHT22;4046;48.774;8.732;2022-07-29T02:33:42;17.80;99.90
8002;DHT22;4046;48.774;8.732;2022-07-29T02:36:09;17.80;99.90
8002;DHT22;4046;48.774;8.732;2022-07-29T02:38:35;17.90;99.90
8002;DHT22;4046;48.774;8.732;2022-07-29T02:41:20;18.00;99.90
8002;DHT22;4046;48.774;8.732;2022-07-29T02:43:52;18.00;99.90
8002;DHT22;4046;48.774;8.732;2022-07-29T02:46:25;18.00;99.90
8002;DHT22;4046;48.774;8.732;2022-07-29T02:51:46;18.20;99.90
8002;DHT22;4046;48.774;8.732;2022-07-29T02:54:21;18.10;99.90
8002;DHT22;4046;48.774;8.732;2022-07-29T02:56:49;17.90;99.90
8002;DHT22;4046;48.774;8.732;2022-07-29T02:59:21;17.90;99.90
8002;DHT22;4046;48.774;8.732;2022-07-29T03:01:48;17.90;99.90
8002;DHT22;4046;48.774;8.732;2022-07-29T03:04:15;17.90;99.90
8002;DHT22;4046;48.774;8.732;2022-07-29T03:06:43;18.00;99.90
8002;DHT22;4046;48.774;8.732;2022-07-29T03:09:10;18.10;99.90
8002;DHT22;4046;48.774;8.732;2022-07-29T03:11:38;17.30;99.90
8002;DHT22;4046;48.774;8.732;2022-07-29T03:14:04;18.20;99.90
8002;DHT22;4046;48.774;8.732;2022-07-29T03:16:31;18.40;99.90
8002;DHT22;4046;48.774;8.732;2022-07-29T03:18:59;18.60;99.90
8002;DHT22;4046;48.774;8.732;2022-07-29T03:21:26;18.80;99.90
8002;DHT22;4046;48.774;8.732;2022-07-29T03:23:51;18.90;99.90
8002;DHT22;4046;48.774;8.732;2022-07-29T03:26:18;19.00;99.90
8002;DHT22;4046;48.774;8.732;2022-07-29T03:28:44;19.20;99.90
8002;DHT22;4046;48.774;8.732;2022-07-29T03:31:10;19.20;99.90
8002;DHT22;4046;48.774;8.732;2022-07-29T03:33:35;19.30;99.90
8002;DHT22;4046;48.774;8.732;2022-07-29T03:36:01;19.40;99.90
8002;DHT22;4046;48.774;8.732;2022-07-29T03:38:29;19.40;99.90
8002;DHT22;4046;48.774;8.732;2022-07-29T03:41:00;19.20;99.90
8002;DHT22;4046;48.774;8.732;2022-07-29T03:43:31;19.00;99.90
8002;DHT22;4046;48.774;8.732;2022-07-29T03:45:57;18.60;99.90
8002;DHT22;4046;48.774;8.732;2022-07-29T03:48:25;18.30;99.90
8002;DHT22;4046;48.774;8.732;2022-07-29T03:50:51;18.00;99.90
8002;DHT22;4046;48.774;8.732;2022-07-29T03:53:17;17.80;99.90
8002;DHT22;4046;48.774;8.732;2022-07-29T03:55:46;17.50;99.90
8002;DHT22;4046;48.774;8.732;2022-07-29T03:58:14;17.00;99.90
8002;DHT22;4046;48.774;8.732;2022-07-29T04:00:42;16.90;99.90
8002;DHT22;4046;48.774;8.732;2022-07-29T04:03:09;16.90;99.90
8002;DHT22;4046;48.774;8.732;2022-07-29T04:05:34;17.00;99.90
8002;DHT22;4046;48.774;8.732;2022-07-29T04:08:00;17.20;99.90
8002;DHT22;4046;48.774;8.732;2022-07-29T04:10:26;17.40;99.90
8002;DHT22;4046;48.774;8.732;2022-07-29T04:12:52;18.00;99.90
8002;DHT22;4046;48.774;8.732;2022-07-29T04:15:18;18.00;99.90
8002;DHT22;4046;48.774;8.732;2022-07-29T04:17:44;18.20;99.90
8002;DHT22;4046;48.774;8.732;2022-07-29T04:20:10;18.40;99.90
8002;DHT22;4046;48.774;8.732;2022-07-29T04:22:39;18.40;99.90
8002;DHT22;4046;48.774;8.732;2022-07-29T04:25:05;18.60;99.90
8002;DHT22;4046;48.774;8.732;2022-07-29T04:27:31;18.80;99.90
8002;DHT22;4046;48.774;8.732;2022-07-29T04:29:57;18.80;99.90
8002;DHT22;4046;48.774;8.732;2022-07-29T04:32:24;18.80;99.90
8002;DHT22;4046;48.774;8.732;2022-07-29T04:34:49;18.60;99.90
8002;DHT22;4046;48.774;8.732;2022-07-29T04:37:15;18.10;99.90
8002;DHT22;4046;48.774;8.732;2022-07-29T04:39:41;17.70;99.90
8002;DHT22;4046;48.774;8.732;2022-07-29T04:42:06;17.70;99.90
8002;DHT22;4046;48.774;8.732;2022-07-29T04:44:32;17.90;99.90
8002;DHT22;4046;48.774;8.732;2022-07-29T04:46:58;18.00;99.90
8002;DHT22;4046;48.774;8.732;2022-07-29T04:49:24;18.00;99.90
8002;DHT22;4046;48.774;8.732;2022-07-29T04:51:50;18.20;99.90
8002;DHT22;4046;48.774;8.732;2022-07-29T04:54:16;18.00;99.90
8002;DHT22;4046;48.774;8.732;2022-07-29T04:56:41;18.10;99.90
8002;DHT22;4046;48.774;8.732;2022-07-29T04:59:07;18.10;99.90
8002;DHT22;4046;48.774;8.732;2022-07-29T05:01:33;18.00;99.90
8002;DHT22;4046;48.774;8.732;2022-07-29T05:03:58;18.10;99.90
8002;DHT22;4046;48.774;8.732;2022-07-29T05:06:24;18.30;99.90
8002;DHT22;4046;48.774;8.732;2022-07-29T05:08:50;18.40;99.90
8002;DHT22;4046;48.774;8.732;2022-07-29T05:11:16;18.50;99.90
8002;DHT22;4046;48.774;8.732;2022-07-29T05:13:41;18.70;99.90
8002;DHT22;4046;48.774;8.732;2022-07-29T05:16:08;18.60;99.90
8002;DHT22;4046;48.774;8.732;2022-07-29T05:18:34;18.80;99.90
8002;DHT22;4046;48.774;8.732;2022-07-29T05:20:59;18.80;99.90
8002;DHT22;4046;48.774;8.732;2022-07-29T05:23:25;18.20;99.90
8002;DHT22;4046;48.774;8.732;2022-07-29T05:25:51;18.10;99.90
8002;DHT22;4046;48.774;8.732;2022-07-29T05:28:17;18.00;99.90
8002;DHT22;4046;48.774;8.732;2022-07-29T05:30:42;18.20;99.90
8002;DHT22;4046;48.774;8.732;2022-07-29T05:33:10;17.90;99.90
8002;DHT22;4046;48.774;8.732;2022-07-29T05:35:38;17.80;99.90
8002;DHT22;4046;48.774;8.732;2022-07-29T05:38:04;17.70;99.90
8002;DHT22;4046;48.774;8.732;2022-07-29T05:40:29;17.50;99.90
8002;DHT22;4046;48.774;8.732;2022-07-29T05:42:55;17.60;99.90
8002;DHT22;4046;48.774;8.732;2022-07-29T05:45:21;17.70;99.90
8002;DHT22;4046;48.774;8.732;2022-07-29T05:47:47;17.80;99.90
8002;DHT22;4046;48.774;8.732;2022-07-29T05:50:13;17.90;99.90
8002;DHT22;4046;48.774;8.732;2022-07-29T05:52:39;18.10;99.90
8002;DHT22;4046;48.774;8.732;2022-07-29T05:55:05;18.50;99.90
8002;DHT22;4046;48.774;8.732;2022-07-29T05:57:31;18.70;99.90
8002;DHT22;4046;48.774;8.732;2022-07-29T05:59:57;19.00;99.90
8002;DHT22;4046;48.774;8.732;2022-07-29T06:02:23;19.40;99.90
8002;DHT22;4046;48.774;8.732;2022-07-29T06:04:49;19.60;99.90
8002;DHT22;4046;48.774;8.732;2022-07-29T06:07:15;19.90;99.90
8002;DHT22;4046;48.774;8.732;2022-07-29T06:09:42;19.90;99.90
8002;DHT22;4046;48.774;8.732;2022-07-29T06:12:08;19.50;99.90
8002;DHT22;4046;48.774;8.732;2022-07-29T06:14:34;19.40;99.90
8002;DHT22;4046;48.774;8.732;2022-07-29T06:17:01;19.40;99.90
8002;DHT22;4046;48.774;8.732;2022-07-29T06:19:27;19.50;99.90
8002;DHT22;4046;48.774;8.732;2022-07-29T06:21:53;19.80;99.90
8002;DHT22;4046;48.774;8.732;2022-07-29T06:24:19;20.20;99.90
8002;DHT22;4046;48.774;8.732;2022-07-29T06:26:45;20.20;99.90
8002;DHT22;4046;48.774;8.732;2022-07-29T06:29:11;20.30;99.90
8002;DHT22;4046;48.774;8.732;2022-07-29T06:31:37;20.60;99.90
8002;DHT22;4046;48.774;8.732;2022-07-29T06:34:03;20.70;99.90
8002;DHT22;4046;48.774;8.732;2022-07-29T06:36:30;20.70;99.90
8002;DHT22;4046;48.774;8.732;2022-07-29T06:38:56;21.00;99.90
8002;DHT22;4046;48.774;8.732;2022-07-29T06:41:22;21.10;99.90
8002;DHT22;4046;48.774;8.732;2022-07-29T06:43:49;21.10;99.90
8002;DHT22;4046;48.774;8.732;2022-07-29T06:46:17;21.10;99.90
8002;DHT22;4046;48.774;8.732;2022-07-29T06:48:44;21.30;99.90
8002;DHT22;4046;48.774;8.732;2022-07-29T06:51:10;21.40;99.90
8002;DHT22;4046;48.774;8.732;2022-07-29T06:53:37;21.40;99.90
8002;DHT22;4046;48.774;8.732;2022-07-29T06:56:04;21.60;99.90
8002;DHT22;4046;48.774;8.732;2022-07-29T06:58:30;21.50;99.90
8002;DHT22;4046;48.774;8.732;2022-07-29T07:00:58;21.50;99.90
8002;DHT22;4046;48.774;8.732;2022-07-29T07:03:26;21.30;99.90
8002;DHT22;4046;48.774;8.732;2022-07-29T07:05:53;21.40;99.90
8002;DHT22;4046;48.774;8.732;2022-07-29T07:08:19;21.50;99.90
8002;DHT22;4046;48.774;8.732;2022-07-29T07:10:46;21.60;99.90
8002;DHT22;4046;48.774;8.732;2022-07-29T07:13:12;21.80;99.90
8002;DHT22;4046;48.774;8.732;2022-07-29T07:15:38;21.90;99.90
8002;DHT22;4046;48.774;8.732;2022-07-29T07:18:05;22.00;99.90
8002;DHT22;4046;48.774;8.732;2022-07-29T07:20:32;22.10;99.90
8002;DHT22;4046;48.774;8.732;2022-07-29T07:22:58;22.30;99.90
8002;DHT22;4046;48.774;8.732;2022-07-29T07:25:24;22.50;99.90
8002;DHT22;4046;48.774;8.732;2022-07-29T07:27:50;22.60;99.90
8002;DHT22;4046;48.774;8.732;2022-07-29T07:30:15;22.70;99.90
8002;DHT22;4046;48.774;8.732;2022-07-29T07:32:41;22.90;99.90
8002;DHT22;4046;48.774;8.732;2022-07-29T07:35:08;23.00;99.90
8002;DHT22;4046;48.774;8.732;2022-07-29T07:37:35;23.00;99.90
8002;DHT22;4046;48.774;8.732;2022-07-29T07:40:01;23.10;99.90
8002;DHT22;4046;48.774;8.732;2022-07-29T07:42:27;23.20;99.90
8002;DHT22;4046;48.774;8.732;2022-07-29T07:44:53;23.40;99.90
8002;DHT22;4046;48.774;8.732;2022-07-29T07:47:19;23.50;99.90
8002;DHT22;4046;48.774;8.732;2022-07-29T07:49:52;23.60;99.90
8002;DHT22;4046;48.774;8.732;2022-07-29T07:52:20;23.60;99.90
8002;DHT22;4046;48.774;8.732;2022-07-29T07:54:47;23.70;99.90
8002;DHT22;4046;48.774;8.732;2022-07-29T07:57:13;23.90;99.90
8002;DHT22;4046;48.774;8.732;2022-07-29T07:59:40;24.10;99.90
8002;DHT22;4046;48.774;8.732;2022-07-29T08:02:06;24.20;99.90
8002;DHT22;4046;48.774;8.732;2022-07-29T08:04:32;24.50;99.90
8002;DHT22;4046;48.774;8.732;2022-07-29T08:06:59;24.70;99.90
8002;DHT22;4046;48.774;8.732;2022-07-29T08:09:27;24.70;99.90
8002;DHT22;4046;48.774;8.732;2022-07-29T08:11:53;24.80;99.90
8002;DHT22;4046;48.774;8.732;2022-07-29T08:14:19;25.10;99.90
8002;DHT22;4046;48.774;8.732;2022-07-29T08:16:45;25.20;99.90
8002;DHT22;4046;48.774;8.732;2022-07-29T08:19:11;25.40;99.90
8002;DHT22;4046;48.774;8.732;2022-07-29T08:21:38;25.30;99.90
8002;DHT22;4046;48.774;8.732;2022-07-29T08:24:04;25.50;99.90
8002;DHT22;4046;48.774;8.732;2022-07-29T08:26:50;25.60;99.90
8002;DHT22;4046;48.774;8.732;2022-07-29T08:29:15;25.80;99.90
8002;DHT22;4046;48.774;8.732;2022-07-29T08:31:42;25.90;99.90
8002;DHT22;4046;48.774;8.732;2022-07-29T08:34:08;26.10;99.90
8002;DHT22;4046;48.774;8.732;2022-07-29T08:36:34;26.30;99.90
8002;DHT22;4046;48.774;8.732;2022-07-29T08:39:00;26.20;99.90
8002;DHT22;4046;48.774;8.732;2022-07-29T08:41:26;26.40;99.90
8002;DHT22;4046;48.774;8.732;2022-07-29T08:43:52;26.50;99.90
8002;DHT22;4046;48.774;8.732;2022-07-29T08:46:19;26.50;99.90
8002;DHT22;4046;48.774;8.732;2022-07-29T08:48:47;26.50;99.90
8002;DHT22;4046;48.774;8.732;2022-07-29T08:51:21;26.60;99.90
8002;DHT22;4046;48.774;8.732;2022-07-29T08:53:48;26.60;99.90
8002;DHT22;4046;48.774;8.732;2022-07-29T08:56:18;26.60;99.90
8002;DHT22;4046;48.774;8.732;2022-07-29T08:58:46;26.90;99.90
8002;DHT22;4046;48.774;8.732;2022-07-29T09:01:16;27.20;99.90
8002;DHT22;4046;48.774;8.732;2022-07-29T09:03:43;27.50;99.90
8002;DHT22;4046;48.774;8.732;2022-07-29T09:06:14;27.60;99.90
8002;DHT22;4046;48.774;8.732;2022-07-29T09:08:40;27.80;99.90
8002;DHT22;4046;48.774;8.732;2022-07-29T09:11:06;28.10;99.90
8002;DHT22;4046;48.774;8.732;2022-07-29T09:13:33;28.30;99.90
8002;DHT22;4046;48.774;8.732;2022-07-29T09:16:00;28.30;99.90
8002;DHT22;4046;48.774;8.732;2022-07-29T09:18:44;28.30;99.90
8002;DHT22;4046;48.774;8.732;2022-07-29T09:21:13;28.50;99.90
8002;DHT22;4046;48.774;8.732;2022-07-29T09:24:08;28.90;99.90
8002;DHT22;4046;48.774;8.732;2022-07-29T09:26:40;29.30;99.90
8002;DHT22;4046;48.774;8.732;2022-07-29T09:29:14;29.70;99.90
8002;DHT22;4046;48.774;8.732;2022-07-29T09:31:43;29.90;99.90
8002;DHT22;4046;48.774;8.732;2022-07-29T09:34:10;30.40;99.90
8002;DHT22;4046;48.774;8.732;2022-07-29T09:36:50;30.70;99.90
8002;DHT22;4046;48.774;8.732;2022-07-29T09:39:37;30.90;99.90
8002;DHT22;4046;48.774;8.732;2022-07-29T09:42:05;31.10;99.90
8002;DHT22;4046;48.774;8.732;2022-07-29T09:44:45;31.70;99.90
8002;DHT22;4046;48.774;8.732;2022-07-29T09:47:13;31.80;99.90
8002;DHT22;4046;48.774;8.732;2022-07-29T09:49:53;32.80;99.90
8002;DHT22;4046;48.774;8.732;2022-07-29T09:52:19;33.30;99.90
8002;DHT22;4046;48.774;8.732;2022-07-29T09:54:45;33.50;99.90
8002;DHT22;4046;48.774;8.732;2022-07-29T09:57:31;33.50;99.90
8002;DHT22;4046;48.774;8.732;2022-07-29T10:00:00;33.20;99.90
8002;DHT22;4046;48.774;8.732;2022-07-29T10:02:32;32.80;99.90
8002;DHT22;4046;48.774;8.732;2022-07-29T10:04:59;32.50;99.90
8002;DHT22;4046;48.774;8.732;2022-07-29T10:07:25;32.10;99.90
8002;DHT22;4046;48.774;8.732;2022-07-29T10:09:56;31.70;99.90
8002;DHT22;4046;48.774;8.732;2022-07-29T10:12:23;31.50;99.90
8002;DHT22;4046;48.774;8.732;2022-07-29T10:14:49;31.20;99.90
8002;DHT22;4046;48.774;8.732;2022-07-29T10:17:17;30.90;99.90
8002;DHT22;4046;48.774;8.732;2022-07-29T10:19:42;30.90;99.90
8002;DHT22;4046;48.774;8.732;2022-07-29T10:22:10;30.80;99.90
8002;DHT22;4046;48.774;8.732;2022-07-29T10:24:37;30.60;99.90
8002;DHT22;4046;48.774;8.732;2022-07-29T10:27:05;30.20;99.90
8002;DHT22;4046;48.774;8.732;2022-07-29T10:29:31;30.00;99.90
8002;DHT22;4046;48.774;8.732;2022-07-29T10:32:31;29.70;99.90
8002;DHT22;4046;48.774;8.732;2022-07-29T10:35:12;29.60;99.90
8002;DHT22;4046;48.774;8.732;2022-07-29T10:40:29;29.50;99.90
8002;DHT22;4046;48.774;8.732;2022-07-29T10:43:28;29.40;99.90
8002;DHT22;4046;48.774;8.732;2022-07-29T10:45:57;29.00;99.90
8002;DHT22;4046;48.774;8.732;2022-07-29T10:48:23;28.30;99.90
8002;DHT22;4046;48.774;8.732;2022-07-29T10:51:07;27.90;99.90
8002;DHT22;4046;48.774;8.732;2022-07-29T10:53:48;27.30;99.90
8002;DHT22;4046;48.774;8.732;2022-07-29T10:56:24;25.90;99.90
8002;DHT22;4046;48.774;8.732;2022-07-29T11:01:48;24.10;99.90
8002;DHT22;4046;48.774;8.732;2022-07-29T11:04:15;23.90;99.90
8002;DHT22;4046;48.774;8.732;2022-07-29T11:09:26;23.60;99.90
8002;DHT22;4046;48.774;8.732;2022-07-29T11:11:52;23.50;99.90
8002;DHT22;4046;48.774;8.732;2022-07-29T11:14:30;23.40;99.90
8002;DHT22;4046;48.774;8.732;2022-07-29T11:17:05;23.40;99.90
8002;DHT22;4046;48.774;8.732;2022-07-29T11:19:31;23.50;99.90
8002;DHT22;4046;48.774;8.732;2022-07-29T11:21:57;23.30;99.90
8002;DHT22;4046;48.774;8.732;2022-07-29T11:24:28;23.30;99.90
8002;DHT22;4046;48.774;8.732;2022-07-29T11:27:12;23.40;99.90
8002;DHT22;4046;48.774;8.732;2022-07-29T11:29:52;23.50;99.90
8002;DHT22;4046;48.774;8.732;2022-07-29T11:32:18;23.80;99.90
8002;DHT22;4046;48.774;8.732;2022-07-29T11:34:47;23.80;99.90
8002;DHT22;4046;48.774;8.732;2022-07-29T11:37:15;23.70;99.90
8002;DHT22;4046;48.774;8.732;2022-07-29T11:44:55;24.90;99.90
8002;DHT22;4046;48.774;8.732;2022-07-29T11:47:28;25.10;99.90
8002;DHT22;4046;48.774;8.732;2022-07-29T11:49:59;25.30;99.90
8002;DHT22;4046;48.774;8.732;2022-07-29T11:52:48;25.10;99.90
8002;DHT22;4046;48.774;8.732;2022-07-29T11:55:15;25.00;99.90
8002;DHT22;4046;48.774;8.732;2022-07-29T11:57:49;25.00;99.90
8002;DHT22;4046;48.774;8.732;2022-07-29T12:02:50;24.30;99.90
8002;DHT22;4046;48.774;8.732;2022-07-29T12:05:17;24.20;99.90
8002;DHT22;4046;48.774;8.732;2022-07-29T12:07:43;24.20;99.90
8002;DHT22;4046;48.774;8.732;2022-07-29T12:10:09;24.20;99.90
8002;DHT22;4046;48.774;8.732;2022-07-29T12:12:35;24.30;99.90
8002;DHT22;4046;48.774;8.732;2022-07-29T12:15:18;24.40;99.90
8002;DHT22;4046;48.774;8.732;2022-07-29T12:17:47;24.30;99.90
8002;DHT22;4046;48.774;8.732;2022-07-29T12:20:29;24.10;99.90
8002;DHT22;4046;48.774;8.732;2022-07-29T12:22:55;24.10;99.90
8002;DHT22;4046;48.774;8.732;2022-07-29T12:25:23;24.30;99.90
8002;DHT22;4046;48.774;8.732;2022-07-29T12:28:04;24.40;99.90
8002;DHT22;4046;48.774;8.732;2022-07-29T12:30:48;24.40;99.90
8002;DHT22;4046;48.774;8.732;2022-07-29T12:33:16;24.50;99.90
8002;DHT22;4046;48.774;8.732;2022-07-29T12:35:45;24.70;99.90
8002;DHT22;4046;48.774;8.732;2022-07-29T12:38:12;25.10;99.90
8002;DHT22;4046;48.774;8.732;2022-07-29T12:40:38;25.50;99.90
8002;DHT22;4046;48.774;8.732;2022-07-29T12:43:13;25.30;99.90
8002;DHT22;4046;48.774;8.732;2022-07-29T12:45:42;25.20;99.90
8002;DHT22;4046;48.774;8.732;2022-07-29T12:48:08;25.20;99.90
8002;DHT22;4046;48.774;8.732;2022-07-29T12:50:35;25.10;99.90
8002;DHT22;4046;48.774;8.732;2022-07-29T12:53:09;25.10;99.90
8002;DHT22;4046;48.774;8.732;2022-07-29T12:55:46;24.90;99.90
8002;DHT22;4046;48.774;8.732;2022-07-29T13:03:27;24.70;99.90
8002;DHT22;4046;48.774;8.732;2022-07-29T13:05:53;24.50;99.90
8002;DHT22;4046;48.774;8.732;2022-07-29T13:08:19;24.30;99.90
8002;DHT22;4046;48.774;8.732;2022-07-29T13:10:46;24.10;99.90
8002;DHT22;4046;48.774;8.732;2022-07-29T13:13:13;24.00;99.90
8002;DHT22;4046;48.774;8.732;2022-07-29T13:15:43;23.90;99.90
8002;DHT22;4046;48.774;8.732;2022-07-29T13:18:32;23.80;99.90
8002;DHT22;4046;48.774;8.732;2022-07-29T13:21:10;23.80;99.90
8002;DHT22;4046;48.774;8.732;2022-07-29T13:23:36;23.70;99.90
8002;DHT22;4046;48.774;8.732;2022-07-29T13:26:06;23.80;99.90
8002;DHT22;4046;48.774;8.732;2022-07-29T13:28:32;23.80;99.90
8002;DHT22;4046;48.774;8.732;2022-07-29T13:30:58;23.70;99.90
8002;DHT22;4046;48.774;8.732;2022-07-29T13:33:24;23.80;99.90
8002;DHT22;4046;48.774;8.732;2022-07-29T13:35:49;23.80;99.90
8002;DHT22;4046;48.774;8.732;2022-07-29T13:38:16;23.90;99.90
8002;DHT22;4046;48.774;8.732;2022-07-29T13:40:41;24.20;99.90
8002;DHT22;4046;48.774;8.732;2022-07-29T13:43:10;24.30;99.90
8002;DHT22;4046;48.774;8.732;2022-07-29T13:45:36;24.50;99.90
8002;DHT22;4046;48.774;8.732;2022-07-29T13:48:02;24.60;99.90
8002;DHT22;4046;48.774;8.732;2022-07-29T13:50:28;24.70;99.90
8002;DHT22;4046;48.774;8.732;2022-07-29T13:52:53;24.60;99.90
8002;DHT22;4046;48.774;8.732;2022-07-29T13:55:19;24.80;99.90
8002;DHT22;4046;48.774;8.732;2022-07-29T13:57:45;24.90;99.90
8002;DHT22;4046;48.774;8.732;2022-07-29T14:00:12;25.20;99.90
8002;DHT22;4046;48.774;8.732;2022-07-29T14:02:38;25.00;99.90
8002;DHT22;4046;48.774;8.732;2022-07-29T14:05:08;24.70;99.90
8002;DHT22;4046;48.774;8.732;2022-07-29T14:07:35;24.80;99.90
8002;DHT22;4046;48.774;8.732;2022-07-29T14:10:01;25.00;99.90
8002;DHT22;4046;48.774;8.732;2022-07-29T14:12:27;25.20;99.90
8002;DHT22;4046;48.774;8.732;2022-07-29T14:14:53;25.50;99.90
8002;DHT22;4046;48.774;8.732;2022-07-29T14:17:18;25.90;99.90
8002;DHT22;4046;48.774;8.732;2022-07-29T14:19:44;26.50;99.90
8002;DHT22;4046;48.774;8.732;2022-07-29T14:22:09;26.40;99.90
8002;DHT22;4046;48.774;8.732;2022-07-29T14:24:36;26.60;99.90
8002;DHT22;4046;48.774;8.732;2022-07-29T14:27:02;26.80;99.90
8002;DHT22;4046;48.774;8.732;2022-07-29T14:29:28;27.10;99.90
8002;DHT22;4046;48.774;8.732;2022-07-29T14:31:53;27.40;99.90
8002;DHT22;4046;48.774;8.732;2022-07-29T14:34:19;27.60;99.90
8002;DHT22;4046;48.774;8.732;2022-07-29T14:36:45;27.40;99.90
8002;DHT22;4046;48.774;8.732;2022-07-29T14:39:11;27.50;99.90
8002;DHT22;4046;48.774;8.732;2022-07-29T14:41:37;27.60;99.90
8002;DHT22;4046;48.774;8.732;2022-07-29T14:44:03;27.80;99.90
8002;DHT22;4046;48.774;8.732;2022-07-29T14:46:29;28.00;99.90
8002;DHT22;4046;48.774;8.732;2022-07-29T14:48:55;28.30;99.90
8002;DHT22;4046;48.774;8.732;2022-07-29T14:51:20;28.50;99.90
8002;DHT22;4046;48.774;8.732;2022-07-29T14:53:46;28.30;99.90
8002;DHT22;4046;48.774;8.732;2022-07-29T14:56:12;28.50;99.90
8002;DHT22;4046;48.774;8.732;2022-07-29T14:58:38;28.40;99.90
8002;DHT22;4046;48.774;8.732;2022-07-29T15:01:04;28.40;99.90
8002;DHT22;4046;48.774;8.732;2022-07-29T15:03:29;28.10;99.90
8002;DHT22;4046;48.774;8.732;2022-07-29T15:05:55;27.90;99.90
8002;DHT22;4046;48.774;8.732;2022-07-29T15:08:21;28.00;99.90
8002;DHT22;4046;48.774;8.732;2022-07-29T15:10:47;28.10;99.90
8002;DHT22;4046;48.774;8.732;2022-07-29T15:13:12;27.90;99.90
8002;DHT22;4046;48.774;8.732;2022-07-29T15:15:38;27.90;99.90
8002;DHT22;4046;48.774;8.732;2022-07-29T15:18:04;27.90;99.90
8002;DHT22;4046;48.774;8.732;2022-07-29T15:20:30;28.10;99.90
8002;DHT22;4046;48.774;8.732;2022-07-29T15:22:56;28.40;99.90
8002;DHT22;4046;48.774;8.732;2022-07-29T15:25:23;28.20;99.90
8002;DHT22;4046;48.774;8.732;2022-07-29T15:27:50;27.50;99.90
8002;DHT22;4046;48.774;8.732;2022-07-29T15:30:15;27.50;99.90
8002;DHT22;4046;48.774;8.732;2022-07-29T15:32:45;27.70;99.90
8002;DHT22;4046;48.774;8.732;2022-07-29T15:35:11;27.50;99.90
8002;DHT22;4046;48.774;8.732;2022-07-29T15:37:37;27.40;99.90
8002;DHT22;4046;48.774;8.732;2022-07-29T15:40:04;27.70;99.90
8002;DHT22;4046;48.774;8.732;2022-07-29T15:42:30;27.50;99.90
8002;DHT22;4046;48.774;8.732;2022-07-29T15:44:56;27.40;99.90
8002;DHT22;4046;48.774;8.732;2022-07-29T15:47:22;27.30;99.90
8002;DHT22;4046;48.774;8.732;2022-07-29T15:49:47;27.50;99.90
8002;DHT22;4046;48.774;8.732;2022-07-29T15:52:18;27.20;99.90
8002;DHT22;4046;48.774;8.732;2022-07-29T15:54:44;27.50;99.90
8002;DHT22;4046;48.774;8.732;2022-07-29T15:57:10;27.70;99.90
8002;DHT22;4046;48.774;8.732;2022-07-29T15:59:36;27.10;99.90
8002;DHT22;4046;48.774;8.732;2022-07-29T16:02:02;26.90;99.90
8002;DHT22;4046;48.774;8.732;2022-07-29T16:04:28;26.80;99.90
8002;DHT22;4046;48.774;8.732;2022-07-29T16:06:54;27.00;99.90
8002;DHT22;4046;48.774;8.732;2022-07-29T16:09:20;27.10;99.90
8002;DHT22;4046;48.774;8.732;2022-07-29T16:11:46;27.20;99.90
8002;DHT22;4046;48.774;8.732;2022-07-29T16:14:16;27.10;99.90
8002;DHT22;4046;48.774;8.732;2022-07-29T16:16:41;27.10;99.90
8002;DHT22;4046;48.774;8.732;2022-07-29T16:19:07;27.00;99.90
8002;DHT22;4046;48.774;8.732;2022-07-29T16:21:36;26.90;99.90
8002;DHT22;4046;48.774;8.732;2022-07-29T16:24:03;26.80;99.90
8002;DHT22;4046;48.774;8.732;2022-07-29T16:26:29;26.80;99.90
8002;DHT22;4046;48.774;8.732;2022-07-29T16:28:55;27.00;99.90
8002;DHT22;4046;48.774;8.732;2022-07-29T16:31:20;27.30;99.90
8002;DHT22;4046;48.774;8.732;2022-07-29T16:33:48;27.50;99.90
8002;DHT22;4046;48.774;8.732;2022-07-29T16:36:15;27.40;99.90
8002;DHT22;4046;48.774;8.732;2022-07-29T16:38:41;27.60;99.90